sensor_id;sensor_type;location;lat;lon;timestamp;P1;durP1;ratioP1;P2;durP2;ratioP2
42972;SDS011;28610;51.214;6.962;2022-07-30T00:01:16;13.25;;;6.38;;
42972;SDS011;28610;51.214;6.962;2022-07-30T00:04:02;14.00;;;6.35;;
42972;SDS011;28610;51.214;6.962;2022-07-30T00:06:47;14.57;;;6.63;;
42972;SDS011;28610;51.214;6.962;2022-07-30T00:09:34;14.60;;;6.68;;
42972;SDS011;28610;51.214;6.962;2022-07-30T00:12:20;12.18;;;6.22;;
42972;SDS011;28610;51.214;6.962;2022-07-30T00:15:05;13.65;;;6.78;;
42972;SDS011;28610;51.214;6.962;2022-07-30T00:17:52;15.18;;;6.68;;
42972;SDS011;28610;51.214;6.962;2022-07-30T00:20:37;16.30;;;7.10;;
42972;SDS011;28610;51.214;6.962;2022-07-30T00:23:23;13.13;;;6.55;;
42972;SDS011;28610;51.214;6.962;2022-07-30T00:26:10;16.52;;;6.88;;
42972;SDS011;28610;51.214;6.962;2022-07-30T00:28:55;14.50;;;6.55;;
42972;SDS011;28610;51.214;6.962;2022-07-30T00:31:41;17.30;;;6.47;;
42972;SDS011;28610;51.214;6.962;2022-07-30T00:34:26;14.55;;;6.60;;
42972;SDS011;28610;51.214;6.962;2022-07-30T00:37:12;16.98;;;6.93;;
42972;SDS011;28610;51.214;6.962;2022-07-30T00:39:57;14.95;;;6.78;;
42972;SDS011;28610;51.214;6.962;2022-07-30T00:42:44;11.63;;;6.82;;
42972;SDS011;28610;51.214;6.962;2022-07-30T00:45:31;15.43;;;6.80;;
42972;SDS011;28610;51.214;6.962;2022-07-30T00:48:16;17.38;;;7.30;;
42972;SDS011;28610;51.214;6.962;2022-07-30T00:51:02;16.80;;;7.13;;
42972;SDS011;28610;51.214;6.962;2022-07-30T00:53:48;21.83;;;7.63;;
42972;SDS011;28610;51.214;6.962;2022-07-30T00:56:34;14.02;;;7.28;;
42972;SDS011;28610;51.214;6.962;2022-07-30T00:59:20;18.90;;;7.35;;
42972;SDS011;28610;51.214;6.962;2022-07-30T01:02:06;14.65;;;7.25;;
42972;SDS011;28610;51.214;6.962;2022-07-30T01:04:52;16.65;;;7.70;;
42972;SDS011;28610;51.214;6.962;2022-07-30T01:07:37;16.20;;;7.15;;
42972;SDS011;28610;51.214;6.962;2022-07-30T01:10:23;17.60;;;7.20;;
42972;SDS011;28610;51.214;6.962;2022-07-30T01:13:08;14.85;;;7.53;;
42972;SDS011;28610;51.214;6.962;2022-07-30T01:15:55;14.88;;;7.13;;
42972;SDS011;28610;51.214;6.962;2022-07-30T01:18:41;15.20;;;8.07;;
42972;SDS011;28610;51.214;6.962;2022-07-30T01:21:45;15.13;;;8.43;;
42972;SDS011;28610;51.214;6.962;2022-07-30T01:24:35;16.95;;;7.80;;
42972;SDS011;28610;51.214;6.962;2022-07-30T01:27:25;14.85;;;7.53;;
42972;SDS011;28610;51.214;6.962;2022-07-30T01:30:14;15.20;;;7.43;;
42972;SDS011;28610;51.214;6.962;2022-07-30T01:33:02;12.88;;;7.00;;
42972;SDS011;28610;51.214;6.962;2022-07-30T01:35:49;12.93;;;7.07;;
42972;SDS011;28610;51.214;6.962;2022-07-30T01:38:36;18.13;;;7.72;;
42972;SDS011;28610;51.214;6.962;2022-07-30T01:41:23;17.88;;;8.00;;
42972;SDS011;28610;51.214;6.962;2022-07-30T01:44:11;15.90;;;8.07;;
42972;SDS011;28610;51.214;6.962;2022-07-30T01:46:58;15.27;;;7.38;;
42972;SDS011;28610;51.214;6.962;2022-07-30T01:49:45;12.15;;;7.63;;
42972;SDS011;28610;51.214;6.962;2022-07-30T01:52:33;14.98;;;7.85;;
42972;SDS011;28610;51.214;6.962;2022-07-30T01:55:20;14.40;;;7.43;;
42972;SDS011;28610;51.214;6.962;2022-07-30T01:58:09;14.38;;;7.72;;
42972;SDS011;28610;51.214;6.962;2022-07-30T02:00:57;12.50;;;7.63;;
42972;SDS011;28610;51.214;6.962;2022-07-30T02:03:43;16.75;;;7.63;;
42972;SDS011;28610;51.214;6.962;2022-07-30T02:06:31;14.27;;;7.47;;
42972;SDS011;28610;51.214;6.962;2022-07-30T02:09:18;15.80;;;7.55;;
42972;SDS011;28610;51.214;6.962;2022-07-30T02:12:12;13.07;;;7.32;;
42972;SDS011;28610;51.214;6.962;2022-07-30T02:15:13;15.60;;;7.78;;
42972;SDS011;28610;51.214;6.962;2022-07-30T02:18:07;13.10;;;7.50;;
42972;SDS011;28610;51.214;6.962;2022-07-30T02:20:58;19.38;;;8.10;;
42972;SDS011;28610;51.214;6.962;2022-07-30T02:23:46;17.00;;;7.38;;
42972;SDS011;28610;51.214;6.962;2022-07-30T02:26:33;12.90;;;7.47;;
42972;SDS011;28610;51.214;6.962;2022-07-30T02:29:20;15.50;;;8.15;;
42972;SDS011;28610;51.214;6.962;2022-07-30T02:32:08;17.70;;;8.63;;
42972;SDS011;28610;51.214;6.962;2022-07-30T02:34:59;14.80;;;8.13;;
42972;SDS011;28610;51.214;6.962;2022-07-30T02:37:49;12.90;;;7.90;;
42972;SDS011;28610;51.214;6.962;2022-07-30T02:40:38;13.27;;;8.23;;
42972;SDS011;28610;51.214;6.962;2022-07-30T02:43:25;16.48;;;8.35;;
42972;SDS011;28610;51.214;6.962;2022-07-30T02:46:12;15.60;;;8.70;;
42972;SDS011;28610;51.214;6.962;2022-07-30T02:49:00;18.55;;;8.57;;
42972;SDS011;28610;51.214;6.962;2022-07-30T02:51:48;14.20;;;8.40;;
42972;SDS011;28610;51.214;6.962;2022-07-30T02:54:34;16.80;;;8.93;;
42972;SDS011;28610;51.214;6.962;2022-07-30T02:57:21;17.02;;;8.85;;
42972;SDS011;28610;51.214;6.962;2022-07-30T03:00:07;14.38;;;8.45;;
42972;SDS011;28610;51.214;6.962;2022-07-30T03:02:55;18.10;;;9.80;;
42972;SDS011;28610;51.214;6.962;2022-07-30T03:05:41;13.85;;;8.40;;
42972;SDS011;28610;51.214;6.962;2022-07-30T03:08:29;15.07;;;9.05;;
42972;SDS011;28610;51.214;6.962;2022-07-30T03:11:16;15.23;;;9.23;;
42972;SDS011;28610;51.214;6.962;2022-07-30T03:14:04;14.60;;;8.40;;
42972;SDS011;28610;51.214;6.962;2022-07-30T03:16:52;16.27;;;8.88;;
42972;SDS011;28610;51.214;6.962;2022-07-30T03:19:39;16.02;;;8.75;;
42972;SDS011;28610;51.214;6.962;2022-07-30T03:22:26;15.63;;;8.98;;
42972;SDS011;28610;51.214;6.962;2022-07-30T03:25:15;15.55;;;9.25;;
42972;SDS011;28610;51.214;6.962;2022-07-30T03:28:04;15.95;;;8.52;;
42972;SDS011;28610;51.214;6.962;2022-07-30T03:30:50;18.02;;;9.70;;
42972;SDS011;28610;51.214;6.962;2022-07-30T03:33:36;15.82;;;10.00;;
42972;SDS011;28610;51.214;6.962;2022-07-30T03:36:23;17.05;;;10.77;;
42972;SDS011;28610;51.214;6.962;2022-07-30T03:39:09;16.70;;;10.23;;
42972;SDS011;28610;51.214;6.962;2022-07-30T03:41:57;16.73;;;10.45;;
42972;SDS011;28610;51.214;6.962;2022-07-30T03:44:42;21.42;;;10.48;;
42972;SDS011;28610;51.214;6.962;2022-07-30T03:47:29;17.67;;;10.05;;
42972;SDS011;28610;51.214;6.962;2022-07-30T03:50:16;16.75;;;10.75;;
42972;SDS011;28610;51.214;6.962;2022-07-30T03:53:02;19.35;;;11.75;;
42972;SDS011;28610;51.214;6.962;2022-07-30T03:55:48;20.75;;;12.00;;
42972;SDS011;28610;51.214;6.962;2022-07-30T03:58:37;21.27;;;12.13;;
42972;SDS011;28610;51.214;6.962;2022-07-30T04:01:23;20.02;;;11.80;;
42972;SDS011;28610;51.214;6.962;2022-07-30T04:04:09;22.23;;;12.93;;
42972;SDS011;28610;51.214;6.962;2022-07-30T04:06:55;17.63;;;11.93;;
42972;SDS011;28610;51.214;6.962;2022-07-30T04:09:41;21.70;;;13.00;;
42972;SDS011;28610;51.214;6.962;2022-07-30T04:12:26;20.70;;;12.50;;
42972;SDS011;28610;51.214;6.962;2022-07-30T04:15:13;21.63;;;12.20;;
42972;SDS011;28610;51.214;6.962;2022-07-30T04:18:00;24.45;;;13.50;;
42972;SDS011;28610;51.214;6.962;2022-07-30T04:20:48;21.05;;;13.50;;
42972;SDS011;28610;51.214;6.962;2022-07-30T04:23:36;24.00;;;13.05;;
42972;SDS011;28610;51.214;6.962;2022-07-30T04:26:23;21.38;;;12.52;;
42972;SDS011;28610;51.214;6.962;2022-07-30T04:29:08;17.20;;;12.10;;
42972;SDS011;28610;51.214;6.962;2022-07-30T04:31:56;19.88;;;11.77;;
42972;SDS011;28610;51.214;6.962;2022-07-30T04:34:45;24.17;;;13.00;;
42972;SDS011;28610;51.214;6.962;2022-07-30T04:37:31;21.40;;;11.68;;
42972;SDS011;28610;51.214;6.962;2022-07-30T04:40:17;17.77;;;12.27;;
42972;SDS011;28610;51.214;6.962;2022-07-30T04:43:02;19.25;;;10.82;;
42972;SDS011;28610;51.214;6.962;2022-07-30T04:45:47;21.48;;;11.50;;
42972;SDS011;28610;51.214;6.962;2022-07-30T04:48:34;17.27;;;11.20;;
42972;SDS011;28610;51.214;6.962;2022-07-30T04:51:21;21.30;;;12.30;;
42972;SDS011;28610;51.214;6.962;2022-07-30T04:54:10;20.95;;;11.68;;
42972;SDS011;28610;51.214;6.962;2022-07-30T04:56:58;21.05;;;11.93;;
42972;SDS011;28610;51.214;6.962;2022-07-30T04:59:44;17.58;;;11.13;;
42972;SDS011;28610;51.214;6.962;2022-07-30T05:02:29;23.25;;;12.05;;
42972;SDS011;28610;51.214;6.962;2022-07-30T05:05:19;23.15;;;12.40;;
42972;SDS011;28610;51.214;6.962;2022-07-30T05:08:06;20.55;;;12.55;;
42972;SDS011;28610;51.214;6.962;2022-07-30T05:10:52;22.10;;;12.45;;
42972;SDS011;28610;51.214;6.962;2022-07-30T05:13:39;21.95;;;12.13;;
42972;SDS011;28610;51.214;6.962;2022-07-30T05:16:25;24.40;;;12.15;;
42972;SDS011;28610;51.214;6.962;2022-07-30T05:19:11;15.93;;;9.27;;
42972;SDS011;28610;51.214;6.962;2022-07-30T05:21:58;17.25;;;8.63;;
42972;SDS011;28610;51.214;6.962;2022-07-30T05:24:44;17.05;;;8.73;;
42972;SDS011;28610;51.214;6.962;2022-07-30T05:27:29;13.75;;;8.90;;
42972;SDS011;28610;51.214;6.962;2022-07-30T05:30:15;15.48;;;9.85;;
42972;SDS011;28610;51.214;6.962;2022-07-30T05:33:00;17.48;;;9.80;;
42972;SDS011;28610;51.214;6.962;2022-07-30T05:35:46;16.52;;;9.10;;
42972;SDS011;28610;51.214;6.962;2022-07-30T05:38:33;14.65;;;8.77;;
42972;SDS011;28610;51.214;6.962;2022-07-30T05:41:19;13.65;;;9.30;;
42972;SDS011;28610;51.214;6.962;2022-07-30T05:44:04;18.33;;;9.25;;
42972;SDS011;28610;51.214;6.962;2022-07-30T05:46:50;18.23;;;9.43;;
42972;SDS011;28610;51.214;6.962;2022-07-30T05:49:35;14.85;;;9.77;;
42972;SDS011;28610;51.214;6.962;2022-07-30T05:52:20;17.20;;;10.02;;
42972;SDS011;28610;51.214;6.962;2022-07-30T05:55:08;16.10;;;10.38;;
42972;SDS011;28610;51.214;6.962;2022-07-30T05:57:54;20.10;;;13.48;;
42972;SDS011;28610;51.214;6.962;2022-07-30T06:00:40;22.05;;;12.43;;
42972;SDS011;28610;51.214;6.962;2022-07-30T06:03:25;20.27;;;13.25;;
42972;SDS011;28610;51.214;6.962;2022-07-30T06:06:10;23.58;;;13.57;;
42972;SDS011;28610;51.214;6.962;2022-07-30T06:08:56;23.05;;;13.25;;
42972;SDS011;28610;51.214;6.962;2022-07-30T06:11:43;26.17;;;13.20;;
42972;SDS011;28610;51.214;6.962;2022-07-30T06:14:28;21.00;;;12.68;;
42972;SDS011;28610;51.214;6.962;2022-07-30T06:17:14;26.90;;;14.65;;
42972;SDS011;28610;51.214;6.962;2022-07-30T06:20:00;29.98;;;16.15;;
42972;SDS011;28610;51.214;6.962;2022-07-30T06:22:45;26.33;;;15.32;;
42972;SDS011;28610;51.214;6.962;2022-07-30T06:25:31;30.35;;;16.90;;
42972;SDS011;28610;51.214;6.962;2022-07-30T06:28:18;32.60;;;16.85;;
42972;SDS011;28610;51.214;6.962;2022-07-30T06:31:03;61.13;;;28.58;;
42972;SDS011;28610;51.214;6.962;2022-07-30T06:33:48;59.65;;;28.10;;
42972;SDS011;28610;51.214;6.962;2022-07-30T06:36:34;57.08;;;28.48;;
42972;SDS011;28610;51.214;6.962;2022-07-30T06:39:19;53.33;;;27.70;;
42972;SDS011;28610;51.214;6.962;2022-07-30T06:42:05;52.58;;;28.80;;
42972;SDS011;28610;51.214;6.962;2022-07-30T06:44:52;62.20;;;31.52;;
42972;SDS011;28610;51.214;6.962;2022-07-30T06:47:37;74.05;;;36.03;;
42972;SDS011;28610;51.214;6.962;2022-07-30T06:50:23;68.55;;;35.30;;
42972;SDS011;28610;51.214;6.962;2022-07-30T06:53:09;68.43;;;34.97;;
42972;SDS011;28610;51.214;6.962;2022-07-30T06:55:55;75.78;;;39.10;;
42972;SDS011;28610;51.214;6.962;2022-07-30T06:58:40;83.45;;;40.08;;
42972;SDS011;28610;51.214;6.962;2022-07-30T07:01:27;81.35;;;41.38;;
42972;SDS011;28610;51.214;6.962;2022-07-30T07:04:12;85.43;;;43.67;;
42972;SDS011;28610;51.214;6.962;2022-07-30T07:06:58;87.32;;;41.58;;
42972;SDS011;28610;51.214;6.962;2022-07-30T07:09:43;105.97;;;47.28;;
42972;SDS011;28610;51.214;6.962;2022-07-30T07:12:29;110.85;;;48.15;;
42972;SDS011;28610;51.214;6.962;2022-07-30T07:15:14;131.88;;;54.25;;
42972;SDS011;28610;51.214;6.962;2022-07-30T07:18:01;127.63;;;54.95;;
42972;SDS011;28610;51.214;6.962;2022-07-30T07:20:46;100.60;;;46.85;;
42972;SDS011;28610;51.214;6.962;2022-07-30T07:23:32;83.38;;;39.58;;
42972;SDS011;28610;51.214;6.962;2022-07-30T07:26:17;76.70;;;36.30;;
42972;SDS011;28610;51.214;6.962;2022-07-30T07:29:02;69.20;;;36.65;;
42972;SDS011;28610;51.214;6.962;2022-07-30T07:31:48;59.15;;;31.25;;
42972;SDS011;28610;51.214;6.962;2022-07-30T07:34:35;58.53;;;31.10;;
42972;SDS011;28610;51.214;6.962;2022-07-30T07:37:20;48.33;;;26.30;;
42972;SDS011;28610;51.214;6.962;2022-07-30T07:40:06;51.15;;;27.95;;
42972;SDS011;28610;51.214;6.962;2022-07-30T07:42:52;51.17;;;28.52;;
42972;SDS011;28610;51.214;6.962;2022-07-30T07:45:38;64.90;;;32.25;;
42972;SDS011;28610;51.214;6.962;2022-07-30T07:48:23;61.38;;;31.98;;
42972;SDS011;28610;51.214;6.962;2022-07-30T07:51:10;57.20;;;28.48;;
42972;SDS011;28610;51.214;6.962;2022-07-30T07:53:55;44.35;;;23.58;;
42972;SDS011;28610;51.214;6.962;2022-07-30T07:56:41;42.88;;;22.98;;
42972;SDS011;28610;51.214;6.962;2022-07-30T07:59:26;35.58;;;21.40;;
42972;SDS011;28610;51.214;6.962;2022-07-30T08:02:12;35.03;;;21.58;;
42972;SDS011;28610;51.214;6.962;2022-07-30T08:04:57;33.65;;;21.13;;
42972;SDS011;28610;51.214;6.962;2022-07-30T08:07:44;37.70;;;21.90;;
42972;SDS011;28610;51.214;6.962;2022-07-30T08:10:29;34.50;;;19.92;;
42972;SDS011;28610;51.214;6.962;2022-07-30T08:13:15;31.67;;;18.23;;
42972;SDS011;28610;51.214;6.962;2022-07-30T08:16:01;28.92;;;19.02;;
42972;SDS011;28610;51.214;6.962;2022-07-30T08:18:46;25.55;;;16.90;;
42972;SDS011;28610;51.214;6.962;2022-07-30T08:21:32;25.95;;;15.63;;
42972;SDS011;28610;51.214;6.962;2022-07-30T08:24:19;30.25;;;16.40;;
42972;SDS011;28610;51.214;6.962;2022-07-30T08:27:04;23.83;;;15.70;;
42972;SDS011;28610;51.214;6.962;2022-07-30T08:29:49;21.55;;;13.05;;
42972;SDS011;28610;51.214;6.962;2022-07-30T08:32:35;23.85;;;12.75;;
42972;SDS011;28610;51.214;6.962;2022-07-30T08:35:21;24.45;;;14.32;;
42972;SDS011;28610;51.214;6.962;2022-07-30T08:38:06;26.92;;;14.05;;
42972;SDS011;28610;51.214;6.962;2022-07-30T08:40:54;23.35;;;13.88;;
42972;SDS011;28610;51.214;6.962;2022-07-30T08:43:40;26.13;;;14.25;;
42972;SDS011;28610;51.214;6.962;2022-07-30T08:46:26;23.13;;;13.27;;
42972;SDS011;28610;51.214;6.962;2022-07-30T08:49:15;20.27;;;12.45;;
42972;SDS011;28610;51.214;6.962;2022-07-30T08:52:01;24.73;;;11.77;;
42972;SDS011;28610;51.214;6.962;2022-07-30T08:54:46;22.45;;;12.63;;
42972;SDS011;28610;51.214;6.962;2022-07-30T08:57:34;19.67;;;11.75;;
42972;SDS011;28610;51.214;6.962;2022-07-30T09:00:20;20.85;;;12.75;;
42972;SDS011;28610;51.214;6.962;2022-07-30T09:03:05;21.45;;;12.85;;
42972;SDS011;28610;51.214;6.962;2022-07-30T09:05:51;20.90;;;12.73;;
42972;SDS011;28610;51.214;6.962;2022-07-30T09:08:36;22.50;;;12.30;;
42972;SDS011;28610;51.214;6.962;2022-07-30T09:11:21;22.10;;;12.32;;
42972;SDS011;28610;51.214;6.962;2022-07-30T09:14:08;18.65;;;11.77;;
42972;SDS011;28610;51.214;6.962;2022-07-30T09:16:55;22.33;;;13.13;;
42972;SDS011;28610;51.214;6.962;2022-07-30T09:19:41;23.27;;;12.40;;
42972;SDS011;28610;51.214;6.962;2022-07-30T09:22:45;21.65;;;12.52;;
42972;SDS011;28610;51.214;6.962;2022-07-30T09:25:36;20.38;;;11.80;;
42972;SDS011;28610;51.214;6.962;2022-07-30T09:28:27;17.75;;;11.00;;
42972;SDS011;28610;51.214;6.962;2022-07-30T09:31:15;22.90;;;10.98;;
42972;SDS011;28610;51.214;6.962;2022-07-30T09:34:01;21.15;;;10.43;;
42972;SDS011;28610;51.214;6.962;2022-07-30T09:36:47;18.92;;;10.20;;
42972;SDS011;28610;51.214;6.962;2022-07-30T09:39:34;20.45;;;10.80;;
42972;SDS011;28610;51.214;6.962;2022-07-30T09:42:22;18.58;;;10.45;;
42972;SDS011;28610;51.214;6.962;2022-07-30T09:45:11;16.98;;;9.15;;
42972;SDS011;28610;51.214;6.962;2022-07-30T09:47:59;19.15;;;8.82;;
42972;SDS011;28610;51.214;6.962;2022-07-30T09:50:46;20.63;;;10.32;;
42972;SDS011;28610;51.214;6.962;2022-07-30T09:53:32;21.67;;;8.98;;
42972;SDS011;28610;51.214;6.962;2022-07-30T09:56:25;17.20;;;9.30;;
42972;SDS011;28610;51.214;6.962;2022-07-30T09:59:26;17.67;;;8.73;;
42972;SDS011;28610;51.214;6.962;2022-07-30T10:02:13;18.83;;;9.43;;
42972;SDS011;28610;51.214;6.962;2022-07-30T10:05:10;18.90;;;8.05;;
42972;SDS011;28610;51.214;6.962;2022-07-30T10:07:57;22.73;;;8.02;;
42972;SDS011;28610;51.214;6.962;2022-07-30T10:10:44;17.17;;;8.10;;
42972;SDS011;28610;51.214;6.962;2022-07-30T10:13:30;15.73;;;7.45;;
42972;SDS011;28610;51.214;6.962;2022-07-30T10:16:17;12.80;;;5.68;;
42972;SDS011;28610;51.214;6.962;2022-07-30T10:19:03;13.35;;;6.60;;
42972;SDS011;28610;51.214;6.962;2022-07-30T10:21:50;13.57;;;6.57;;
42972;SDS011;28610;51.214;6.962;2022-07-30T10:24:36;12.50;;;5.57;;
42972;SDS011;28610;51.214;6.962;2022-07-30T10:27:22;10.77;;;5.72;;
42972;SDS011;28610;51.214;6.962;2022-07-30T10:30:08;13.80;;;5.95;;
42972;SDS011;28610;51.214;6.962;2022-07-30T10:32:54;14.98;;;5.97;;
42972;SDS011;28610;51.214;6.962;2022-07-30T10:35:41;12.05;;;5.07;;
42972;SDS011;28610;51.214;6.962;2022-07-30T10:38:28;12.48;;;5.22;;
42972;SDS011;28610;51.214;6.962;2022-07-30T10:41:22;12.65;;;5.30;;
42972;SDS011;28610;51.214;6.962;2022-07-30T10:47:31;15.02;;;6.00;;
42972;SDS011;28610;51.214;6.962;2022-07-30T10:50:18;10.88;;;5.00;;
42972;SDS011;28610;51.214;6.962;2022-07-30T10:53:05;14.05;;;5.68;;
42972;SDS011;28610;51.214;6.962;2022-07-30T10:55:58;11.25;;;4.70;;
42972;SDS011;28610;51.214;6.962;2022-07-30T10:58:56;12.18;;;5.10;;
42972;SDS011;28610;51.214;6.962;2022-07-30T11:18:01;12.80;;;4.65;;
42972;SDS011;28610;51.214;6.962;2022-07-30T11:24:00;11.90;;;4.05;;
42972;SDS011;28610;51.214;6.962;2022-07-30T11:26:51;9.02;;;4.18;;
42972;SDS011;28610;51.214;6.962;2022-07-30T11:29:37;8.30;;;4.00;;
42972;SDS011;28610;51.214;6.962;2022-07-30T11:32:24;10.32;;;4.45;;
42972;SDS011;28610;51.214;6.962;2022-07-30T11:35:15;12.50;;;4.32;;
42972;SDS011;28610;51.214;6.962;2022-07-30T11:38:03;9.25;;;4.05;;
42972;SDS011;28610;51.214;6.962;2022-07-30T11:47:12;10.90;;;4.40;;
42972;SDS011;28610;51.214;6.962;2022-07-30T11:49:58;8.68;;;3.80;;
42972;SDS011;28610;51.214;6.962;2022-07-30T11:52:47;7.22;;;3.25;;
42972;SDS011;28610;51.214;6.962;2022-07-30T11:55:33;8.63;;;3.67;;
42972;SDS011;28610;51.214;6.962;2022-07-30T11:58:22;9.20;;;3.60;;
42972;SDS011;28610;51.214;6.962;2022-07-30T12:01:12;7.43;;;3.47;;
42972;SDS011;28610;51.214;6.962;2022-07-30T12:04:00;10.40;;;4.18;;
42972;SDS011;28610;51.214;6.962;2022-07-30T12:06:47;7.88;;;2.72;;
42972;SDS011;28610;51.214;6.962;2022-07-30T12:09:32;9.75;;;3.03;;
42972;SDS011;28610;51.214;6.962;2022-07-30T12:12:21;8.90;;;3.58;;
42972;SDS011;28610;51.214;6.962;2022-07-30T12:15:07;6.30;;;3.05;;
42972;SDS011;28610;51.214;6.962;2022-07-30T12:17:54;8.73;;;3.42;;
42972;SDS011;28610;51.214;6.962;2022-07-30T12:20:40;11.20;;;3.72;;
42972;SDS011;28610;51.214;6.962;2022-07-30T12:23:26;5.97;;;2.90;;
42972;SDS011;28610;51.214;6.962;2022-07-30T12:26:18;9.50;;;3.17;;
42972;SDS011;28610;51.214;6.962;2022-07-30T12:29:05;7.20;;;3.08;;
42972;SDS011;28610;51.214;6.962;2022-07-30T12:31:52;8.65;;;3.42;;
42972;SDS011;28610;51.214;6.962;2022-07-30T12:34:39;8.80;;;3.13;;
42972;SDS011;28610;51.214;6.962;2022-07-30T12:37:37;9.52;;;3.60;;
42972;SDS011;28610;51.214;6.962;2022-07-30T12:40:23;9.50;;;3.03;;
42972;SDS011;28610;51.214;6.962;2022-07-30T12:43:08;6.55;;;3.17;;
42972;SDS011;28610;51.214;6.962;2022-07-30T12:45:56;6.88;;;2.90;;
42972;SDS011;28610;51.214;6.962;2022-07-30T12:48:50;9.38;;;3.70;;
42972;SDS011;28610;51.214;6.962;2022-07-30T12:51:48;6.63;;;3.00;;
42972;SDS011;28610;51.214;6.962;2022-07-30T12:54:34;8.73;;;3.22;;
42972;SDS011;28610;51.214;6.962;2022-07-30T12:57:20;6.53;;;2.55;;
42972;SDS011;28610;51.214;6.962;2022-07-30T13:00:06;7.93;;;2.70;;
42972;SDS011;28610;51.214;6.962;2022-07-30T13:02:52;5.93;;;3.03;;
42972;SDS011;28610;51.214;6.962;2022-07-30T13:05:44;5.88;;;2.85;;
42972;SDS011;28610;51.214;6.962;2022-07-30T13:08:45;10.20;;;3.03;;
42972;SDS011;28610;51.214;6.962;2022-07-30T13:11:38;6.78;;;3.03;;
42972;SDS011;28610;51.214;6.962;2022-07-30T13:14:24;5.72;;;2.78;;
42972;SDS011;28610;51.214;6.962;2022-07-30T13:17:10;8.43;;;2.90;;
42972;SDS011;28610;51.214;6.962;2022-07-30T13:19:55;8.25;;;2.92;;
42972;SDS011;28610;51.214;6.962;2022-07-30T13:22:42;5.22;;;2.75;;
42972;SDS011;28610;51.214;6.962;2022-07-30T13:25:28;6.75;;;3.30;;
42972;SDS011;28610;51.214;6.962;2022-07-30T13:28:14;6.65;;;2.80;;
42972;SDS011;28610;51.214;6.962;2022-07-30T13:30:59;7.28;;;2.95;;
42972;SDS011;28610;51.214;6.962;2022-07-30T13:33:45;5.50;;;2.40;;
42972;SDS011;28610;51.214;6.962;2022-07-30T13:36:31;6.05;;;2.38;;
42972;SDS011;28610;51.214;6.962;2022-07-30T13:39:16;5.55;;;2.40;;
42972;SDS011;28610;51.214;6.962;2022-07-30T13:42:03;5.45;;;2.50;;
42972;SDS011;28610;51.214;6.962;2022-07-30T13:44:49;8.63;;;2.40;;
42972;SDS011;28610;51.214;6.962;2022-07-30T13:47:34;6.55;;;2.30;;
42972;SDS011;28610;51.214;6.962;2022-07-30T13:50:19;4.70;;;2.33;;
42972;SDS011;28610;51.214;6.962;2022-07-30T13:53:05;6.78;;;2.30;;
42972;SDS011;28610;51.214;6.962;2022-07-30T13:55:51;6.07;;;2.55;;
42972;SDS011;28610;51.214;6.962;2022-07-30T13:58:38;5.20;;;2.30;;
42972;SDS011;28610;51.214;6.962;2022-07-30T14:01:23;5.35;;;2.22;;
42972;SDS011;28610;51.214;6.962;2022-07-30T14:04:09;9.07;;;2.20;;
42972;SDS011;28610;51.214;6.962;2022-07-30T14:06:54;4.68;;;2.15;;
42972;SDS011;28610;51.214;6.962;2022-07-30T14:09:40;6.88;;;2.30;;
42972;SDS011;28610;51.214;6.962;2022-07-30T14:12:25;5.80;;;2.20;;
42972;SDS011;28610;51.214;6.962;2022-07-30T14:15:12;6.22;;;2.40;;
42972;SDS011;28610;51.214;6.962;2022-07-30T14:17:58;8.23;;;3.33;;
42972;SDS011;28610;51.214;6.962;2022-07-30T14:20:44;4.05;;;2.20;;
42972;SDS011;28610;51.214;6.962;2022-07-30T14:23:30;5.32;;;2.08;;
42972;SDS011;28610;51.214;6.962;2022-07-30T14:26:15;4.53;;;1.90;;
42972;SDS011;28610;51.214;6.962;2022-07-30T14:29:01;2.85;;;1.75;;
42972;SDS011;28610;51.214;6.962;2022-07-30T14:31:48;2.25;;;1.73;;
42972;SDS011;28610;51.214;6.962;2022-07-30T14:34:33;2.97;;;1.92;;
42972;SDS011;28610;51.214;6.962;2022-07-30T14:37:18;4.68;;;2.38;;
42972;SDS011;28610;51.214;6.962;2022-07-30T14:40:04;7.30;;;2.00;;
42972;SDS011;28610;51.214;6.962;2022-07-30T14:42:51;4.25;;;1.98;;
42972;SDS011;28610;51.214;6.962;2022-07-30T14:45:36;4.57;;;2.00;;
42972;SDS011;28610;51.214;6.962;2022-07-30T14:48:23;4.47;;;2.10;;
42972;SDS011;28610;51.214;6.962;2022-07-30T14:51:09;4.15;;;1.95;;
42972;SDS011;28610;51.214;6.962;2022-07-30T14:53:55;4.03;;;1.80;;
42972;SDS011;28610;51.214;6.962;2022-07-30T14:56:41;7.15;;;2.30;;
42972;SDS011;28610;51.214;6.962;2022-07-30T14:59:26;7.03;;;2.13;;
42972;SDS011;28610;51.214;6.962;2022-07-30T15:02:12;6.35;;;2.10;;
42972;SDS011;28610;51.214;6.962;2022-07-30T15:04:59;5.20;;;1.90;;
42972;SDS011;28610;51.214;6.962;2022-07-30T15:07:44;4.93;;;1.95;;
42972;SDS011;28610;51.214;6.962;2022-07-30T15:10:30;3.90;;;2.03;;
42972;SDS011;28610;51.214;6.962;2022-07-30T15:13:16;4.40;;;1.80;;
42972;SDS011;28610;51.214;6.962;2022-07-30T15:16:01;4.80;;;2.05;;
42972;SDS011;28610;51.214;6.962;2022-07-30T15:18:47;5.25;;;2.30;;
42972;SDS011;28610;51.214;6.962;2022-07-30T15:21:34;5.40;;;2.00;;
42972;SDS011;28610;51.214;6.962;2022-07-30T15:24:19;4.70;;;1.88;;
42972;SDS011;28610;51.214;6.962;2022-07-30T15:27:05;5.97;;;2.00;;
42972;SDS011;28610;51.214;6.962;2022-07-30T15:29:50;4.40;;;1.90;;
42972;SDS011;28610;51.214;6.962;2022-07-30T15:32:36;7.95;;;2.10;;
42972;SDS011;28610;51.214;6.962;2022-07-30T15:35:21;6.32;;;2.30;;
42972;SDS011;28610;51.214;6.962;2022-07-30T15:38:08;4.35;;;2.53;;
42972;SDS011;28610;51.214;6.962;2022-07-30T15:40:54;4.05;;;2.20;;
42972;SDS011;28610;51.214;6.962;2022-07-30T15:43:39;10.65;;;2.90;;
42972;SDS011;28610;51.214;6.962;2022-07-30T15:46:25;6.53;;;2.17;;
42972;SDS011;28610;51.214;6.962;2022-07-30T15:49:10;6.18;;;2.13;;
42972;SDS011;28610;51.214;6.962;2022-07-30T15:51:57;5.45;;;2.20;;
42972;SDS011;28610;51.214;6.962;2022-07-30T15:54:44;5.25;;;2.00;;
42972;SDS011;28610;51.214;6.962;2022-07-30T15:57:29;4.60;;;2.35;;
42972;SDS011;28610;51.214;6.962;2022-07-30T16:00:15;8.25;;;2.20;;
42972;SDS011;28610;51.214;6.962;2022-07-30T16:03:01;6.10;;;2.40;;
42972;SDS011;28610;51.214;6.962;2022-07-30T16:05:46;5.90;;;2.15;;
42972;SDS011;28610;51.214;6.962;2022-07-30T16:08:32;4.25;;;2.10;;
42972;SDS011;28610;51.214;6.962;2022-07-30T16:11:19;7.95;;;2.20;;
42972;SDS011;28610;51.214;6.962;2022-07-30T16:14:04;6.18;;;2.20;;
42972;SDS011;28610;51.214;6.962;2022-07-30T16:16:49;4.50;;;2.13;;
42972;SDS011;28610;51.214;6.962;2022-07-30T16:19:35;4.47;;;2.10;;
42972;SDS011;28610;51.214;6.962;2022-07-30T16:22:21;4.45;;;1.92;;
42972;SDS011;28610;51.214;6.962;2022-07-30T16:25:07;4.50;;;2.10;;
42972;SDS011;28610;51.214;6.962;2022-07-30T16:27:53;5.50;;;2.05;;
42972;SDS011;28610;51.214;6.962;2022-07-30T16:30:40;5.88;;;2.05;;
42972;SDS011;28610;51.214;6.962;2022-07-30T16:33:27;5.00;;;2.25;;
42972;SDS011;28610;51.214;6.962;2022-07-30T16:36:13;4.88;;;2.22;;
42972;SDS011;28610;51.214;6.962;2022-07-30T16:38:59;7.45;;;2.72;;
42972;SDS011;28610;51.214;6.962;2022-07-30T16:41:45;7.93;;;2.50;;
42972;SDS011;28610;51.214;6.962;2022-07-30T16:44:32;6.50;;;2.20;;
42972;SDS011;28610;51.214;6.962;2022-07-30T16:47:18;5.65;;;2.22;;
42972;SDS011;28610;51.214;6.962;2022-07-30T16:50:04;4.53;;;2.20;;
42972;SDS011;28610;51.214;6.962;2022-07-30T16:52:50;7.28;;;2.30;;
42972;SDS011;28610;51.214;6.962;2022-07-30T16:55:35;4.70;;;2.30;;
42972;SDS011;28610;51.214;6.962;2022-07-30T16:58:21;8.68;;;2.40;;